Fort Lauderdale, FL

2:03 PM EDT on July 04, 2015 (GMT -0400)
APRSWXNET | | Change Station
CLOSE
Current Station
Personal Weather Station
Location: Fort Lauderdale, FL
Elevation: 6 ft
Nearby Weather Stations

Elev 6 ft 26.11 °N, 80.12 °W | Updated 29 minutes ago

Partly Cloudy
Partly Cloudy
85 °F
Feels Like 96 °F
N
0
Wind Variable Wind from SSE
Gusts 1.0 mph

Today
High -- | Low -- °F
--% Chance of Precip.
Yesterday
High -- | Low -- °F
Precip. -- in
6:32 AM 8:16 PM
Waning Gibbous, 91% visible
Pressure 30.11 in
Visibility 10.0 miles
Clouds Clear
Heat Index 96 °F
Dew Point 77 °F
Humidity 78%
Rainfall in
Snow Depth Not available.
UV 15 out of 12
Pollen 3.20 out of 12
Air Quality Not available.
Flu Activity Not available.
METAR KFLL 041753Z 12011G18KT 10SM CLR 32/24 A3011 RMK AO2 SLP194 60000 T03170244 10317 20261 58005

More Conditions Fewer Conditions

Pressure 30.11 in
Visibility 10.0 miles
Clouds Clear
Heat Index 96 °F
Dew Point 77 °F
Humidity 78%
Rainfall in
Snow Depth Not available.
UV 15 out of 12
Pollen 3.20 out of 12
Air Quality Not available.
Flu Activity Not available.
METAR KFLL 041753Z 12011G18KT 10SM CLR 32/24 A3011 RMK AO2 SLP194 60000 T03170244 10317 20261 58005

More Conditions Fewer Conditions

Nowcast | as of 12:27 PM EDT on July 4, 2015

Through early afternoon, showers and thunderstorms will diminish over the Metro areas, while they increase in coverage and intensity over The Everglades. Showers and thunderstorms will also persist over the Atlantic waters between Palm Beach County and Grand Bahama Island. The showers and thunderstorms will move northwest at 10 mph and produce occasional lightning, gusty winds and rough seas.

×

10-Day Weather Forecast

×

Almanac

Astronomy

Jul. 04, 2015 Rise Set
Actual Time
Civil Twilight
Nautical Twilight
Astronomical Twilight
Moon
Length of Visible Light
Length of Day
Tomorrow will be .
, % of the Moon is Illuminated

Today's Extremes

State Highs State Lows

Community

WunderPhotos

Upload Photos

1,835,016 photos uploaded!

WunderBlogs® & News

Nearby

Air Quality

  Air Quality AQ Index Pollutant
Not available.

Snow Depth

Station Depth Elevation

Earthquake Activity

City Distance Mag. Time & Date
Minimum magnitude displayed is 2.5.

Coastal Water Temperatures

Place Temperature

Stations

Nearby Weather Stations

Station Location Temp. Windchill Dew Point Humidity Wind Precip. Elev Updated Type